Aérodrome :
LOGIN :

S'inscrire | Disclaimer

   EN    FR    IT 

 










Légende :    VFR   VFR Marginal   IFR   IFR Intensif   IFR Très Intensif
Visi : 
Plafond : 
>= 8 km
>= 3000ft
5 à 8 km
1000 à 3000 ft
1500m à 5 km
500 à 1000 ft
800 à 1500m
200 à 500 ft
< 800m
< 200 ft
Symboles :   Orages  Brouillard  Fortes neiges  Fortes précipitations  Vent > 20 kt
SIGMETs :   Divers  Orages  Givrage  Turbulence  Onde Orograph.  Cendres Volcan.







- Altitude de l'aérodrome : 1161 ft
- Code IATA : RJL


LELO - Logroño-Agoncillo

DERNIER METAR :
  • 210600Z 00000KT 9999 SCT033 BKN055 10/08 Q1017

METARs EXPIRÉS :
  • 210530Z 00000KT 9999 FEW035 BKN050 10/08 Q1017
  • 210500Z VRB02KT 9999 FEW035 BKN050 10/08 Q1017
  • 210430Z 09003KT 050V120 9999 FEW016 SCT036 BKN050 10/08 Q1017
  • 210400Z 05005KT 9999 FEW016 BKN057 10/08 Q1017
  • 210330Z AUTO 04005KT 360V080 9999 BKN056 10/08 Q1017
  • 210300Z AUTO 04003KT 350V100 9999 OVC050 10/08 Q1018

TAF TAF LELO
Valide du 21 à 06h jusqu'au 21 à 15h UTC


210500Z 2106/2115 08006KT 9999 FEW035 BKN050
Pas de NOTAMs connus pour ce terrain.



MET'MAP, la Météo Aéronautique d'un coup d'oeil ! - Copyright ORBIFLY Décembre 2007 - Disclaimer

ORBIFLY MET'MAP TEAM :

Programmation & Développement : Alexandra Zaïnal
Conception & Développement : Baudouin d'Aumeries
Co-Programmation & Développement : Marc-Olivier Méhu
Soutien technique & logistique : Manuel Goepfert

Contact : metmap@orbifly.com




SOURCES & CREDITS :

   NOAA